Time;durP1;ratioP1;P1;durP2;ratioP2;P2;SDS_P1;SDS_P2;PMS_P1;PMS_P2;Temp;Humidity;BMP_temperature;BMP_pressure;BME280_temperature;BME280_humidity;BME280_pressure;Samples;Min_cycle;Max_cycle;Signal;HPM_P1;HPM_P2
2021/03/13 00:02:04;;;;;;;4.15;2.00;;;;;;;;;;5139160;28;20233;-54
2021/03/13 00:04:31;;;;;;;6.70;2.10;;;;;;;;;;5138210;28;20221;-54
2021/03/13 00:06:57;;;;;;;7.63;3.15;;;;;;;;;;5138998;28;20200;-54
2021/03/13 00:09:24;;;;;;;12.52;3.53;;;;;;;;;;5138705;28;20204;-54
2021/03/13 00:11:52;;;;;;;8.10;2.45;;;;;;;;;;5139525;28;20184;-55
2021/03/13 00:14:21;;;;;;;9.40;3.13;;;;;;;;;;5139125;28;20189;-50
2021/03/13 00:16:49;;;;;;;6.35;1.85;;;;;;;;;;5139488;28;20213;-53
2021/03/13 00:19:15;;;;;;;13.52;2.20;;;;;;;;;;5138219;28;20188;-56
2021/03/13 00:21:46;;;;;;;2.78;1.10;;;;;;;;;;5138590;28;20188;-52
2021/03/13 00:24:13;;;;;;;8.63;1.85;;;;;;;;;;5123435;28;20241;-58
2021/03/13 00:26:41;;;;;;;6.13;1.58;;;;;;;;;;5117628;28;20186;-49
2021/03/13 00:29:29;;;;;;;3.85;1.55;;;;;;;;;;5117917;28;20214;-53
2021/03/13 00:31:58;;;;;;;6.15;2.38;;;;;;;;;;5117816;28;20193;-48
2021/03/13 00:34:25;;;;;;;5.00;1.15;;;;;;;;;;5117496;28;20181;-52
2021/03/13 00:36:56;;;;;;;4.93;1.48;;;;;;;;;;5118048;28;20201;-52
2021/03/13 00:39:24;;;;;;;5.93;1.90;;;;;;;;;;5118271;28;20360;-50
2021/03/13 00:41:51;;;;;;;7.90;1.77;;;;;;;;;;5118631;28;20266;-53
2021/03/13 00:44:25;;;;;;;7.63;1.52;;;;;;;;;;5118298;28;20213;-50
2021/03/13 00:46:53;;;;;;;4.35;1.60;;;;;;;;;;5117636;28;20279;-45
2021/03/13 00:49:20;;;;;;;3.67;1.25;;;;;;;;;;5117900;28;20201;-51
2021/03/13 00:52:08;;;;;;;5.38;1.77;;;;;;;;;;5117700;28;20212;-52
2021/03/13 00:54:35;;;;;;;5.50;2.30;;;;;;;;;;5117795;28;20190;-53
2021/03/13 00:57:02;;;;;;;7.03;1.75;;;;;;;;;;5116264;28;20200;-47
2021/03/13 00:59:37;;;;;;;8.05;2.10;;;;;;;;;;5117800;28;20223;-59
2021/03/13 01:02:04;;;;;;;4.70;2.05;;;;;;;;;;5117435;28;20256;-52
2021/03/13 01:04:32;;;;;;;4.13;1.73;;;;;;;;;;5117173;28;20212;-54
2021/03/13 01:07:06;;;;;;;8.15;2.30;;;;;;;;;;5117099;28;20377;-53
2021/03/13 01:09:32;;;;;;;5.45;1.80;;;;;;;;;;5117150;28;20186;-53
2021/03/13 01:11:59;;;;;;;6.78;1.60;;;;;;;;;;5117114;28;20257;-53
2021/03/13 01:14:39;;;;;;;8.95;2.35;;;;;;;;;;5117282;28;20201;-50
2021/03/13 01:17:06;;;;;;;4.72;1.90;;;;;;;;;;5117033;28;20344;-56
2021/03/13 01:19:34;;;;;;;6.70;2.00;;;;;;;;;;5117279;28;20189;-54
2021/03/13 01:25:04;;;;;;;10.52;2.88;;;;;;;;;;5137377;27;20243;-51
2021/03/13 01:27:31;;;;;;;6.57;1.60;;;;;;;;;;5137677;28;20212;-56
2021/03/13 01:33:02;;;;;;;10.43;2.28;;;;;;;;;;5137379;28;20191;-49
2021/03/13 01:35:29;;;;;;;8.18;2.17;;;;;;;;;;5137216;28;20223;-49
2021/03/13 01:38:09;;;;;;;6.22;2.63;;;;;;;;;;5137202;28;20254;-51
2021/03/13 01:40:35;;;;;;;6.07;2.58;;;;;;;;;;5137341;28;20200;-51
2021/03/13 01:43:02;;;;;;;6.35;2.42;;;;;;;;;;5136367;27;20200;-54
2021/03/13 01:45:52;;;;;;;3.83;2.58;;;;;;;;;;5116426;28;20221;-53
2021/03/13 01:48:20;;;;;;;6.25;3.35;;;;;;;;;;5116703;28;20201;-56
2021/03/13 01:50:47;;;;;;;7.00;2.70;;;;;;;;;;5116732;28;20332;-52
2021/03/13 01:53:28;;;;;;;5.10;2.03;;;;;;;;;;5116495;28;20205;-54
2021/03/13 01:55:55;;;;;;;5.72;2.22;;;;;;;;;;5116185;28;20311;-48
2021/03/13 01:58:21;;;;;;;13.00;2.95;;;;;;;;;;5130890;28;20204;-50
2021/03/13 02:01:05;;;;;;;3.95;1.95;;;;;;;;;;5137062;28;20208;-56
2021/03/13 02:03:31;;;;;;;8.80;2.38;;;;;;;;;;5129503;28;20207;-49
2021/03/13 02:06:00;;;;;;;6.85;2.47;;;;;;;;;;5136966;28;20218;-53
2021/03/13 02:08:31;;;;;;;4.45;2.13;;;;;;;;;;5136113;27;20200;-54
2021/03/13 02:11:02;;;;;;;5.70;2.35;;;;;;;;;;5136127;28;20221;-54
2021/03/13 02:13:32;;;;;;;5.72;2.70;;;;;;;;;;5136777;28;20189;-51
2021/03/13 02:16:07;;;;;;;4.75;1.98;;;;;;;;;;5136383;28;20231;-49
2021/03/13 02:18:37;;;;;;;8.40;1.90;;;;;;;;;;5136899;28;20203;-57
2021/03/13 02:21:15;;;;;;;4.47;1.95;;;;;;;;;;5136583;28;20193;-50
2021/03/13 02:24:03;;;;;;;3.70;2.10;;;;;;;;;;5127326;27;20244;-53
2021/03/13 02:26:56;;;;;;;4.63;2.95;;;;;;;;;;5116236;28;20196;-54
2021/03/13 02:29:36;;;;;;;2.78;1.20;;;;;;;;;;5115933;28;20202;-54
2021/03/13 02:32:05;;;;;;;4.97;1.60;;;;;;;;;;5116507;28;20253;-50
2021/03/13 02:34:35;;;;;;;1.90;1.15;;;;;;;;;;5116114;28;20185;-56
2021/03/13 02:37:05;;;;;;;2.63;1.00;;;;;;;;;;5115816;28;20291;-50
2021/03/13 02:39:33;;;;;;;4.28;1.20;;;;;;;;;;5115826;28;20223;-53
2021/03/13 02:42:13;;;;;;;2.70;1.08;;;;;;;;;;5115741;28;20208;-56
2021/03/13 02:44:41;;;;;;;2.38;1.25;;;;;;;;;;5115667;28;20228;-55
2021/03/13 02:47:10;;;;;;;2.75;1.17;;;;;;;;;;5116491;28;20344;-55
2021/03/13 02:49:57;;;;;;;1.80;0.90;;;;;;;;;;5097192;28;20462;-59
2021/03/13 02:52:28;;;;;;;3.85;1.38;;;;;;;;;;5115270;28;20196;-52
2021/03/13 02:54:56;;;;;;;3.00;1.20;;;;;;;;;;5103264;28;20213;-58
2021/03/13 02:57:53;;;;;;;2.33;1.08;;;;;;;;;;5094776;28;20216;-50
2021/03/13 03:00:23;;;;;;;3.55;1.02;;;;;;;;;;5094860;28;20193;-53
2021/03/13 03:02:51;;;;;;;2.22;0.93;;;;;;;;;;5094988;28;20210;-48
2021/03/13 03:05:42;;;;;;;2.20;0.90;;;;;;;;;;5094979;28;20230;-54
2021/03/13 03:08:10;;;;;;;3.55;1.30;;;;;;;;;;5131996;28;20231;-56
2021/03/13 03:10:38;;;;;;;3.17;0.85;;;;;;;;;;5157005;28;20221;-56
2021/03/13 03:13:30;;;;;;;2.03;0.90;;;;;;;;;;5156669;28;20222;-53
2021/03/13 03:16:00;;;;;;;3.55;0.98;;;;;;;;;;5157256;28;20200;-51
2021/03/13 03:18:27;;;;;;;5.30;1.15;;;;;;;;;;5156812;28;20188;-51
2021/03/13 03:21:15;;;;;;;2.72;1.20;;;;;;;;;;5158616;27;20207;-55
2021/03/13 03:23:42;;;;;;;2.63;1.42;;;;;;;;;;5161510;27;20199;-56
2021/03/13 03:26:09;;;;;;;2.17;1.00;;;;;;;;;;5160295;27;20249;-55
2021/03/13 03:28:46;;;;;;;2.53;0.88;;;;;;;;;;5160261;27;20204;-52
2021/03/13 03:31:15;;;;;;;2.47;0.82;;;;;;;;;;5144949;27;20245;-57
2021/03/13 03:33:42;;;;;;;3.00;1.00;;;;;;;;;;5139389;28;20212;-55
2021/03/13 03:36:16;;;;;;;2.63;0.73;;;;;;;;;;5139776;28;20196;-58
2021/03/13 03:38:43;;;;;;;2.00;0.80;;;;;;;;;;5139222;28;20200;-57
2021/03/13 03:41:10;;;;;;;3.50;0.90;;;;;;;;;;5139618;28;20237;-52
2021/03/13 03:43:41;;;;;;;2.60;0.80;;;;;;;;;;5139001;28;20212;-54
2021/03/13 03:46:11;;;;;;;2.80;1.08;;;;;;;;;;5139660;28;20224;-52
2021/03/13 03:48:39;;;;;;;1.92;0.70;;;;;;;;;;5120837;28;20266;-53
2021/03/13 03:51:15;;;;;;;1.50;0.60;;;;;;;;;;5118844;28;20338;-54
2021/03/13 03:53:43;;;;;;;2.15;0.80;;;;;;;;;;5118540;28;20213;-53
2021/03/13 03:56:11;;;;;;;1.60;0.60;;;;;;;;;;5138434;28;20189;-53
2021/03/13 03:58:52;;;;;;;1.98;0.75;;;;;;;;;;5139122;28;20209;-50
2021/03/13 04:01:22;;;;;;;2.20;0.70;;;;;;;;;;5139342;28;20204;-51
2021/03/13 04:03:51;;;;;;;2.60;0.80;;;;;;;;;;5138992;28;20194;-55
2021/03/13 04:06:18;;;;;;;2.08;0.70;;;;;;;;;;5139227;28;20228;-52
2021/03/13 04:08:46;;;;;;;2.75;0.80;;;;;;;;;;5138625;28;20216;-53
2021/03/13 04:11:14;;;;;;;3.70;0.70;;;;;;;;;;5139471;28;20188;-56
2021/03/13 04:13:53;;;;;;;1.80;0.65;;;;;;;;;;5139604;28;20200;-54
2021/03/13 04:16:20;;;;;;;1.80;0.70;;;;;;;;;;5138703;28;20196;-50
2021/03/13 04:18:47;;;;;;;3.58;1.10;;;;;;;;;;5139137;28;20200;-57
2021/03/13 04:21:15;;;;;;;2.10;0.80;;;;;;;;;;5138815;28;20195;-52
2021/03/13 04:23:44;;;;;;;2.70;0.90;;;;;;;;;;5138693;28;20185;-59
2021/03/13 04:26:19;;;;;;;1.60;0.60;;;;;;;;;;5138502;28;20212;-52
2021/03/13 04:28:46;;;;;;;2.78;0.90;;;;;;;;;;5138318;28;20192;-55
2021/03/13 04:31:13;;;;;;;3.58;0.82;;;;;;;;;;5137437;28;20224;-49
2021/03/13 04:36:45;;;;;;;2.60;0.95;;;;;;;;;;5136281;28;20231;-55
2021/03/13 04:39:12;;;;;;;2.15;0.80;;;;;;;;;;5138259;28;20300;-57
2021/03/13 04:41:39;;;;;;;2.00;0.88;;;;;;;;;;5137943;28;20220;-52
2021/03/13 04:44:07;;;;;;;4.95;1.10;;;;;;;;;;5138302;28;20235;-59
2021/03/13 04:46:58;;;;;;;4.70;0.60;;;;;;;;;;5138378;28;20232;-58
2021/03/13 04:49:25;;;;;;;2.55;0.70;;;;;;;;;;5137873;28;20215;-49
2021/03/13 04:51:53;;;;;;;2.72;0.80;;;;;;;;;;5137704;28;20355;-57
2021/03/13 04:54:22;;;;;;;1.90;0.70;;;;;;;;;;5138009;28;20192;-52
2021/03/13 04:56:48;;;;;;;2.90;0.93;;;;;;;;;;5137888;28;20189;-53
2021/03/13 04:59:15;;;;;;;2.00;0.80;;;;;;;;;;5137934;28;20193;-55
2021/03/13 05:01:52;;;;;;;1.70;0.70;;;;;;;;;;5137987;28;20196;-54
2021/03/13 05:04:19;;;;;;;3.00;0.70;;;;;;;;;;5137883;28;20200;-48
2021/03/13 05:06:46;;;;;;;2.13;1.17;;;;;;;;;;5137194;28;20203;-56
2021/03/13 05:09:40;;;;;;;2.13;0.70;;;;;;;;;;5136854;28;20192;-57
2021/03/13 05:12:08;;;;;;;1.70;0.70;;;;;;;;;;5117174;28;20212;-53
2021/03/13 05:14:35;;;;;;;2.03;0.73;;;;;;;;;;5128106;28;20219;-57
2021/03/13 05:17:26;;;;;;;2.63;0.80;;;;;;;;;;5137676;28;20214;-53
2021/03/13 05:19:53;;;;;;;1.70;0.65;;;;;;;;;;5137617;28;20204;-55
2021/03/13 05:22:20;;;;;;;2.67;1.33;;;;;;;;;;5137797;28;20181;-57
2021/03/13 05:24:55;;;;;;;2.53;0.90;;;;;;;;;;5137986;28;20288;-49
2021/03/13 05:27:22;;;;;;;1.85;0.82;;;;;;;;;;5136999;28;20200;-53
2021/03/13 05:29:49;;;;;;;2.00;0.70;;;;;;;;;;5137289;28;20214;-54
2021/03/13 05:32:17;;;;;;;2.50;0.80;;;;;;;;;;5137563;28;20200;-54
2021/03/13 05:34:44;;;;;;;2.35;0.60;;;;;;;;;;5137296;28;20196;-48
2021/03/13 05:37:11;;;;;;;3.33;0.95;;;;;;;;;;5137416;28;20205;-52
2021/03/13 05:39:39;;;;;;;3.38;0.80;;;;;;;;;;5137314;28;20204;-52
2021/03/13 05:42:07;;;;;;;5.95;0.80;;;;;;;;;;5137484;28;20200;-52
2021/03/13 05:44:35;;;;;;;5.35;0.70;;;;;;;;;;5136284;28;20212;-52
2021/03/13 05:47:02;;;;;;;1.70;0.70;;;;;;;;;;5137638;28;20262;-57
2021/03/13 05:49:31;;;;;;;3.65;0.70;;;;;;;;;;5137441;28;20200;-56
2021/03/13 05:51:59;;;;;;;2.97;0.90;;;;;;;;;;5137407;28;20656;-57
2021/03/13 05:54:52;;;;;;;2.42;0.80;;;;;;;;;;5137163;28;20204;-52
2021/03/13 05:57:20;;;;;;;12.65;0.90;;;;;;;;;;5137558;28;20184;-57
2021/03/13 05:59:49;;;;;;;2.08;1.05;;;;;;;;;;5137784;28;20270;-57
2021/03/13 06:02:26;;;;;;;2.50;1.00;;;;;;;;;;5137829;28;20204;-56
2021/03/13 06:04:53;;;;;;;2.15;0.70;;;;;;;;;;5137306;28;20212;-55
2021/03/13 06:07:21;;;;;;;2.55;0.80;;;;;;;;;;5137099;28;20208;-59
2021/03/13 06:09:51;;;;;;;3.50;1.35;;;;;;;;;;5137697;28;20200;-59
2021/03/13 06:12:18;;;;;;;3.30;0.73;;;;;;;;;;5136931;28;20209;-49
2021/03/13 06:14:48;;;;;;;3.67;0.80;;;;;;;;;;5135462;28;20207;-51
2021/03/13 06:17:26;;;;;;;2.45;0.82;;;;;;;;;;5136547;28;20267;-55
2021/03/13 06:19:55;;;;;;;3.25;0.75;;;;;;;;;;5116608;28;20197;-58
2021/03/13 06:22:38;;;;;;;7.03;1.00;;;;;;;;;;5116275;28;20181;-57
2021/03/13 06:25:25;;;;;;;2.38;0.75;;;;;;;;;;5121089;28;20268;-50
2021/03/13 06:28:06;;;;;;;2.03;0.70;;;;;;;;;;5131991;28;20201;-61
2021/03/13 06:30:35;;;;;;;2.25;0.70;;;;;;;;;;5136826;28;20192;-52
2021/03/13 06:33:02;;;;;;;2.50;0.80;;;;;;;;;;5136971;28;20192;-54
2021/03/13 06:35:29;;;;;;;4.82;0.80;;;;;;;;;;5124647;28;20290;-55
2021/03/13 06:37:57;;;;;;;3.53;1.02;;;;;;;;;;5115593;28;20224;-49
2021/03/13 06:40:27;;;;;;;5.07;0.70;;;;;;;;;;5128967;28;20192;-57
2021/03/13 06:43:25;;;;;;;3.88;1.00;;;;;;;;;;5133662;28;20188;-60
2021/03/13 06:45:57;;;;;;;4.38;0.80;;;;;;;;;;5053414;28;20279;-56
2021/03/13 06:48:35;;;;;;;4.72;0.80;;;;;;;;;;5120348;28;20200;-51
2021/03/13 06:51:17;;;;;;;3.00;1.00;;;;;;;;;;5136076;28;20226;-50
2021/03/13 06:53:47;;;;;;;3.80;1.10;;;;;;;;;;5134516;28;20268;-57
2021/03/13 06:56:15;;;;;;;5.32;1.33;;;;;;;;;;5135450;28;20204;-56
2021/03/13 06:58:42;;;;;;;5.30;1.45;;;;;;;;;;5136164;28;20184;-55
2021/03/13 07:01:26;;;;;;;3.70;0.82;;;;;;;;;;5123559;28;20197;-58
2021/03/13 07:03:53;;;;;;;2.50;0.93;;;;;;;;;;5125312;28;20198;-59
2021/03/13 07:06:20;;;;;;;5.78;1.20;;;;;;;;;;5135682;28;20216;-54
2021/03/13 07:08:54;;;;;;;2.45;0.90;;;;;;;;;;5135301;28;20306;-54
2021/03/13 07:11:22;;;;;;;3.35;1.08;;;;;;;;;;5133346;28;20255;-57
2021/03/13 07:13:53;;;;;;;2.90;1.00;;;;;;;;;;5135585;28;20185;-53
2021/03/13 07:16:31;;;;;;;3.95;1.25;;;;;;;;;;5135474;28;20200;-58
2021/03/13 07:18:58;;;;;;;4.00;1.40;;;;;;;;;;5135342;28;20208;-56
2021/03/13 07:21:29;;;;;;;1.70;0.60;;;;;;;;;;5135616;28;20178;-51
2021/03/13 07:23:57;;;;;;;4.82;0.95;;;;;;;;;;5135194;28;20200;-51
2021/03/13 07:26:25;;;;;;;2.47;1.00;;;;;;;;;;5135264;28;20212;-52
2021/03/13 07:28:59;;;;;;;3.30;1.02;;;;;;;;;;5135472;28;20197;-59
2021/03/13 07:31:29;;;;;;;2.65;0.70;;;;;;;;;;5135209;28;20214;-50
2021/03/13 07:34:18;;;;;;;2.97;0.82;;;;;;;;;;5135606;28;20189;-53
2021/03/13 07:36:45;;;;;;;2.15;0.70;;;;;;;;;;5135104;28;20188;-54
2021/03/13 07:39:12;;;;;;;2.60;0.90;;;;;;;;;;5134890;28;20208;-58
2021/03/13 07:41:57;;;;;;;5.95;1.15;;;;;;;;;;5135442;28;20191;-60
2021/03/13 07:44:24;;;;;;;2.05;0.70;;;;;;;;;;5135483;28;20196;-60
2021/03/13 07:46:51;;;;;;;1.80;0.70;;;;;;;;;;5135462;28;20226;-59
2021/03/13 07:49:27;;;;;;;2.20;0.90;;;;;;;;;;5125366;28;20208;-56
2021/03/13 07:51:54;;;;;;;4.13;0.90;;;;;;;;;;5129858;28;20207;-54
2021/03/13 07:54:21;;;;;;;4.95;1.40;;;;;;;;;;5134828;28;20196;-54
2021/03/13 07:56:54;;;;;;;4.55;1.30;;;;;;;;;;5135126;28;20196;-50
2021/03/13 07:59:35;;;;;;;8.60;1.10;;;;;;;;;;5135284;28;20201;-50
2021/03/13 08:02:02;;;;;;;7.53;1.75;;;;;;;;;;5116719;28;20196;-53
2021/03/13 08:04:44;;;;;;;2.95;1.30;;;;;;;;;;5118682;28;20210;-52
2021/03/13 08:07:13;;;;;;;3.83;1.00;;;;;;;;;;5097945;28;20192;-49
2021/03/13 08:10:03;;;;;;;2.53;0.90;;;;;;;;;;5139197;27;20172;-51
2021/03/13 08:12:38;;;;;;;2.90;0.90;;;;;;;;;;5139517;28;20215;-58
2021/03/13 08:18:13;;;;;;;3.58;0.80;;;;;;;;;;5120690;28;20219;-55
2021/03/13 08:20:40;;;;;;;11.07;1.08;;;;;;;;;;5138138;28;20189;-51
2021/03/13 08:26:06;;;;;;;5.50;1.50;;;;;;;;;;5175004;27;20542;-52
2021/03/13 08:31:46;;;;;;;4.07;1.35;;;;;;;;;;5167967;27;20181;-56
2021/03/13 08:34:46;;;;;;;5.60;1.75;;;;;;;;;;5188103;27;20186;-50
2021/03/13 08:37:50;;;;;;;4.13;1.33;;;;;;;;;;5091101;28;20224;-55
2021/03/13 08:40:23;;;;;;;2.70;1.27;;;;;;;;;;5091240;28;20186;-49
2021/03/13 08:43:09;;;;;;;2.67;1.20;;;;;;;;;;5169342;27;20191;-53
2021/03/13 08:45:50;;;;;;;3.35;1.40;;;;;;;;;;5174994;27;20235;-52
2021/03/13 08:48:22;;;;;;;3.65;2.10;;;;;;;;;;5174243;27;20191;-49
2021/03/13 08:50:54;;;;;;;4.78;1.92;;;;;;;;;;5174652;27;20196;-52
2021/03/13 08:53:33;;;;;;;4.75;1.40;;;;;;;;;;5172917;27;20198;-54
2021/03/13 08:56:04;;;;;;;2.42;1.13;;;;;;;;;;5174515;27;20259;-55
2021/03/13 08:58:43;;;;;;;4.18;1.15;;;;;;;;;;5174244;27;20251;-52
2021/03/13 09:04:14;;;;;;;3.08;0.80;;;;;;;;;;5173772;27;20206;-52
2021/03/13 09:06:42;;;;;;;5.00;1.10;;;;;;;;;;5173505;27;20203;-58
2021/03/13 09:09:17;;;;;;;2.88;0.90;;;;;;;;;;5188085;27;20561;-56
2021/03/13 09:11:47;;;;;;;3.25;0.90;;;;;;;;;;5190581;27;20209;-52
2021/03/13 09:14:15;;;;;;;3.15;1.30;;;;;;;;;;5193653;27;20259;-52
2021/03/13 09:16:52;;;;;;;5.10;1.63;;;;;;;;;;5194474;27;20170;-57
2021/03/13 09:19:20;;;;;;;7.88;1.30;;;;;;;;;;5192337;27;20198;-60
2021/03/13 09:21:49;;;;;;;6.82;1.65;;;;;;;;;;5194166;27;20191;-49
2021/03/13 09:24:26;;;;;;;5.63;1.25;;;;;;;;;;5193914;27;20230;-54
2021/03/13 09:26:54;;;;;;;7.57;2.05;;;;;;;;;;5194022;27;20213;-57
2021/03/13 09:29:27;;;;;;;4.68;1.58;;;;;;;;;;5193659;27;20203;-55
2021/03/13 09:32:29;;;;;;;7.88;1.48;;;;;;;;;;5191028;27;20195;-55
2021/03/13 09:34:57;;;;;;;10.25;2.50;;;;;;;;;;5173606;27;20199;-54
2021/03/13 09:37:25;;;;;;;4.18;1.00;;;;;;;;;;5159545;27;20268;-57
2021/03/13 09:40:13;;;;;;;4.78;2.10;;;;;;;;;;5159037;27;20218;-57
2021/03/13 09:42:41;;;;;;;5.70;1.35;;;;;;;;;;5159150;27;20221;-56
2021/03/13 09:45:08;;;;;;;3.95;1.65;;;;;;;;;;5158906;27;20227;-55
2021/03/13 09:47:48;;;;;;;9.25;3.45;;;;;;;;;;5158795;27;20249;-54
2021/03/13 09:50:16;;;;;;;5.80;1.75;;;;;;;;;;5157567;27;20235;-55
2021/03/13 09:52:44;;;;;;;8.57;1.70;;;;;;;;;;5158346;27;20207;-55
2021/03/13 09:55:12;;;;;;;7.18;1.60;;;;;;;;;;5157919;27;20200;-51
2021/03/13 09:57:40;;;;;;;8.48;2.00;;;;;;;;;;5158611;27;20190;-54
2021/03/13 10:00:10;;;;;;;6.28;2.00;;;;;;;;;;5158321;27;20195;-59
2021/03/13 10:02:36;;;;;;;4.90;1.55;;;;;;;;;;5158305;27;20235;-53
2021/03/13 10:05:04;;;;;;;7.40;1.77;;;;;;;;;;5157829;27;20219;-54
2021/03/13 10:07:52;;;;;;;3.40;1.40;;;;;;;;;;5147994;27;20196;-56
2021/03/13 10:10:19;;;;;;;4.78;1.88;;;;;;;;;;5149980;27;20263;-58
2021/03/13 10:12:47;;;;;;;11.00;1.92;;;;;;;;;;5157120;27;20221;-60
2021/03/13 10:15:34;;;;;;;6.78;2.33;;;;;;;;;;5139333;27;20196;-58
2021/03/13 10:18:02;;;;;;;12.65;1.70;;;;;;;;;;5150067;27;20201;-55
2021/03/13 10:20:33;;;;;;;7.10;2.00;;;;;;;;;;5135684;27;20187;-51
2021/03/13 10:23:10;;;;;;;7.20;2.38;;;;;;;;;;5158142;27;20231;-56
2021/03/13 10:25:38;;;;;;;6.47;1.42;;;;;;;;;;5157582;27;20264;-55
2021/03/13 10:28:20;;;;;;;6.47;2.38;;;;;;;;;;5158227;27;20196;-53
2021/03/13 10:30:50;;;;;;;9.20;1.55;;;;;;;;;;5158342;27;20204;-58
2021/03/13 10:33:19;;;;;;;6.75;2.70;;;;;;;;;;5158093;27;20245;-60
2021/03/13 10:35:49;;;;;;;5.30;1.97;;;;;;;;;;5154823;27;20240;-58
2021/03/13 10:41:24;;;;;;;7.03;2.30;;;;;;;;;;5136996;27;20424;-59
2021/03/13 10:43:52;;;;;;;12.13;2.97;;;;;;;;;;5149675;27;20449;-53
2021/03/13 10:46:37;;;;;;;17.03;2.97;;;;;;;;;;5157950;27;20457;-56
2021/03/13 10:49:07;;;;;;;5.53;1.70;;;;;;;;;;5142743;27;20445;-58
2021/03/13 10:51:41;;;;;;;7.33;1.90;;;;;;;;;;5154666;27;20441;-53
2021/03/13 10:54:19;;;;;;;10.10;2.53;;;;;;;;;;5157008;27;20469;-56
2021/03/13 10:56:48;;;;;;;14.07;2.47;;;;;;;;;;5157815;27;20429;-55
2021/03/13 10:59:16;;;;;;;9.10;2.60;;;;;;;;;;5157402;27;20441;-52
2021/03/13 11:01:46;;;;;;;6.40;1.77;;;;;;;;;;5150829;27;20454;-56
2021/03/13 11:04:48;;;;;;;9.53;2.70;;;;;;;;;;5139025;27;20481;-56
2021/03/13 11:07:15;;;;;;;5.60;1.90;;;;;;;;;;5157285;27;20479;-50
2021/03/13 11:09:45;;;;;;;5.40;1.70;;;;;;;;;;5156379;27;20465;-52
2021/03/13 11:12:14;;;;;;;7.77;1.70;;;;;;;;;;5137100;28;20446;-59
2021/03/13 11:14:40;;;;;;;5.23;2.03;;;;;;;;;;5148497;27;20446;-56
2021/03/13 11:17:22;;;;;;;7.40;2.00;;;;;;;;;;5157527;27;20444;-55
2021/03/13 11:19:54;;;;;;;8.67;1.80;;;;;;;;;;5154616;27;20464;-56
2021/03/13 11:22:28;;;;;;;13.30;2.20;;;;;;;;;;5156498;27;20465;-56
2021/03/13 11:24:58;;;;;;;4.17;1.20;;;;;;;;;;5152062;27;20468;-59
2021/03/13 11:27:25;;;;;;;8.57;2.13;;;;;;;;;;5156416;27;20445;-58
2021/03/13 11:29:53;;;;;;;8.67;1.97;;;;;;;;;;5156403;27;21461;-56
2021/03/13 11:32:38;;;;;;;7.57;1.90;;;;;;;;;;5156503;27;20437;-51
2021/03/13 11:35:06;;;;;;;7.17;2.10;;;;;;;;;;5156355;27;20449;-56
2021/03/13 11:37:35;;;;;;;9.90;2.60;;;;;;;;;;5151063;27;20457;-56
2021/03/13 11:40:20;;;;;;;9.13;2.77;;;;;;;;;;5156748;27;20441;-53
2021/03/13 11:42:49;;;;;;;12.50;2.20;;;;;;;;;;5156315;27;20453;-52
2021/03/13 11:45:16;;;;;;;7.60;1.90;;;;;;;;;;5155829;27;20548;-60
2021/03/13 11:47:52;;;;;;;7.73;2.57;;;;;;;;;;5149974;27;20457;-53
2021/03/13 11:50:21;;;;;;;12.70;2.20;;;;;;;;;;5150233;27;20460;-53
2021/03/13 11:52:48;;;;;;;6.33;2.00;;;;;;;;;;5155536;27;20464;-55
2021/03/13 11:55:29;;;;;;;12.27;2.43;;;;;;;;;;5156323;27;20437;-59
2021/03/13 11:58:08;;;;;;;12.70;3.00;;;;;;;;;;5156955;27;20450;-52
2021/03/13 12:00:41;;;;;;;15.53;3.50;;;;;;;;;;5155531;27;20449;-58
2021/03/13 12:03:13;;;;;;;8.93;2.17;;;;;;;;;;5150638;27;20460;-54
2021/03/13 12:05:40;;;;;;;11.23;3.10;;;;;;;;;;5155432;27;20477;-53
2021/03/13 12:08:07;;;;;;;10.07;2.10;;;;;;;;;;5125192;28;20442;-55
2021/03/13 12:10:34;;;;;;;8.23;2.53;;;;;;;;;;5154285;27;20477;-56
2021/03/13 12:13:02;;;;;;;8.07;2.60;;;;;;;;;;5155150;27;20458;-55
2021/03/13 12:15:29;;;;;;;7.33;2.50;;;;;;;;;;5155611;27;20623;-56
2021/03/13 12:17:58;;;;;;;8.03;2.63;;;;;;;;;;5155920;27;20483;-54
2021/03/13 12:20:26;;;;;;;9.37;2.10;;;;;;;;;;5155575;27;20453;-52
2021/03/13 12:22:53;;;;;;;7.77;2.10;;;;;;;;;;5154450;27;20473;-47
2021/03/13 12:28:27;;;;;;;4.90;2.23;;;;;;;;;;5133497;28;20483;-57
2021/03/13 12:30:54;;;;;;;10.47;2.53;;;;;;;;;;5133974;28;20577;-56
2021/03/13 12:33:24;;;;;;;8.33;2.73;;;;;;;;;;5120623;28;20474;-51
2021/03/13 12:36:01;;;;;;;12.80;2.60;;;;;;;;;;5132033;28;20452;-50
2021/03/13 12:38:39;;;;;;;9.27;2.70;;;;;;;;;;5137865;28;20442;-59
2021/03/13 12:44:00;;;;;;;14.70;2.53;;;;;;;;;;5122342;28;20444;-52
2021/03/13 12:46:29;;;;;;;14.63;2.13;;;;;;;;;;5130164;28;20468;-59
2021/03/13 12:48:56;;;;;;;12.30;3.00;;;;;;;;;;5119706;28;20447;-61
2021/03/13 12:54:29;;;;;;;11.23;3.27;;;;;;;;;;5143357;27;20503;-60
2021/03/13 12:56:57;;;;;;;11.90;2.97;;;;;;;;;;5154491;28;20449;-60
2021/03/13 12:59:35;;;;;;;10.10;2.87;;;;;;;;;;5147228;28;20456;-54
2021/03/13 13:02:02;;;;;;;18.10;3.80;;;;;;;;;;5139460;27;20574;-52
2021/03/13 13:04:30;;;;;;;39.20;5.40;;;;;;;;;;5134406;28;20478;-54
2021/03/13 13:06:57;;;;;;;12.98;2.88;;;;;;;;;;5133488;28;20193;-57
2021/03/13 13:09:25;;;;;;;7.82;2.90;;;;;;;;;;5137677;28;20203;-53
2021/03/13 13:11:54;;;;;;;7.60;2.95;;;;;;;;;;5129444;27;20204;-55
2021/03/13 13:14:21;;;;;;;12.55;2.72;;;;;;;;;;5130027;28;20196;-58
2021/03/13 13:17:04;;;;;;;15.45;3.35;;;;;;;;;;5134667;28;20244;-58
2021/03/13 13:19:44;;;;;;;15.07;4.05;;;;;;;;;;5147979;27;20222;-55
2021/03/13 13:22:11;;;;;;;10.43;3.33;;;;;;;;;;5148242;27;20231;-53
2021/03/13 13:24:38;;;;;;;17.15;3.90;;;;;;;;;;5155596;27;20245;-48
2021/03/13 13:27:12;;;;;;;11.25;4.20;;;;;;;;;;5156580;27;20198;-50
2021/03/13 13:29:39;;;;;;;21.95;5.20;;;;;;;;;;5152884;27;20618;-52
2021/03/13 13:35:33;;;;;;;13.65;2.20;;;;;;;;;;5154182;27;20215;-51
2021/03/13 13:41:07;;;;;;;13.52;2.90;;;;;;;;;;5137048;28;20429;-51
2021/03/13 13:43:40;;;;;;;7.05;1.77;;;;;;;;;;5136996;28;20204;-56
2021/03/13 13:46:07;;;;;;;7.60;1.65;;;;;;;;;;5135631;28;20224;-55
2021/03/13 13:48:38;;;;;;;5.10;1.73;;;;;;;;;;5147893;27;20196;-56
2021/03/13 13:51:31;;;;;;;10.70;2.92;;;;;;;;;;5157040;27;20227;-53
2021/03/13 13:53:58;;;;;;;12.00;2.90;;;;;;;;;;5154799;27;20195;-57
2021/03/13 13:56:25;;;;;;;10.07;2.75;;;;;;;;;;5155828;27;20204;-57
2021/03/13 13:58:53;;;;;;;7.05;2.08;;;;;;;;;;5155609;27;20227;-54
2021/03/13 14:01:21;;;;;;;7.90;1.70;;;;;;;;;;5156174;27;20211;-59
2021/03/13 14:03:48;;;;;;;6.30;1.85;;;;;;;;;;5149702;27;20251;-51
2021/03/13 14:06:21;;;;;;;8.48;2.30;;;;;;;;;;5144596;27;20234;-58
2021/03/13 14:08:49;;;;;;;6.47;2.03;;;;;;;;;;5145428;27;20204;-55
2021/03/13 14:11:20;;;;;;;5.50;1.63;;;;;;;;;;5134423;28;20181;-49
2021/03/13 14:13:56;;;;;;;7.38;2.00;;;;;;;;;;5150821;27;20218;-56
2021/03/13 14:16:31;;;;;;;6.72;1.95;;;;;;;;;;5136278;28;20200;-58
2021/03/13 14:19:00;;;;;;;8.32;1.85;;;;;;;;;;5148382;27;20200;-52
2021/03/13 14:21:29;;;;;;;7.88;1.88;;;;;;;;;;5154225;27;20227;-54
2021/03/13 14:24:08;;;;;;;5.03;1.52;;;;;;;;;;5156053;27;20202;-53
2021/03/13 14:26:35;;;;;;;15.40;1.92;;;;;;;;;;5156533;27;20187;-51
2021/03/13 14:29:13;;;;;;;9.55;2.15;;;;;;;;;;5153815;27;20200;-55
2021/03/13 14:31:47;;;;;;;11.82;2.80;;;;;;;;;;5155973;27;20207;-58
2021/03/13 14:34:16;;;;;;;9.10;2.90;;;;;;;;;;5156569;27;20208;-56
2021/03/13 14:36:44;;;;;;;9.77;2.22;;;;;;;;;;5155855;27;20184;-48
2021/03/13 14:39:15;;;;;;;10.20;2.33;;;;;;;;;;5154884;27;20215;-52
2021/03/13 14:41:47;;;;;;;8.10;2.42;;;;;;;;;;5153221;27;20208;-54
2021/03/13 14:44:15;;;;;;;7.80;2.78;;;;;;;;;;5156183;27;20223;-56
2021/03/13 14:46:44;;;;;;;10.60;2.00;;;;;;;;;;5156062;27;20198;-58
2021/03/13 14:49:11;;;;;;;9.32;3.05;;;;;;;;;;5153540;27;20211;-53
2021/03/13 14:51:41;;;;;;;12.43;2.42;;;;;;;;;;5152484;27;20205;-48
2021/03/13 14:54:08;;;;;;;11.23;2.13;;;;;;;;;;5152744;27;20196;-49
2021/03/13 14:56:36;;;;;;;6.75;2.17;;;;;;;;;;5155349;27;20349;-54
2021/03/13 14:59:21;;;;;;;10.63;2.40;;;;;;;;;;5155327;27;20196;-57
2021/03/13 15:01:47;;;;;;;8.73;2.55;;;;;;;;;;5155391;27;20485;-54
2021/03/13 15:04:18;;;;;;;6.18;1.60;;;;;;;;;;5155203;27;20192;-52
2021/03/13 15:06:46;;;;;;;13.73;3.28;;;;;;;;;;5149644;27;20184;-51
2021/03/13 15:09:13;;;;;;;7.63;2.05;;;;;;;;;;5143439;27;20248;-54
2021/03/13 15:11:41;;;;;;;10.60;2.33;;;;;;;;;;5155581;27;20204;-55
2021/03/13 15:14:21;;;;;;;7.40;2.40;;;;;;;;;;5126206;27;20195;-52
2021/03/13 15:16:48;;;;;;;11.07;2.63;;;;;;;;;;5144342;27;20188;-55
2021/03/13 15:19:15;;;;;;;9.07;2.58;;;;;;;;;;5134462;28;20185;-55
2021/03/13 15:21:57;;;;;;;4.85;1.77;;;;;;;;;;5133902;28;20207;-55
2021/03/13 15:24:25;;;;;;;6.72;1.75;;;;;;;;;;5134265;28;20200;-47
2021/03/13 15:27:13;;;;;;;10.85;2.25;;;;;;;;;;5134910;28;20205;-52
2021/03/13 15:30:09;;;;;;;10.70;2.00;;;;;;;;;;5133032;28;20304;-51
2021/03/13 15:32:36;;;;;;;11.25;3.28;;;;;;;;;;5146342;27;20236;-50
2021/03/13 15:35:23;;;;;;;8.93;2.30;;;;;;;;;;5135315;28;20192;-57
2021/03/13 15:37:51;;;;;;;6.18;1.88;;;;;;;;;;5146980;27;20192;-52
2021/03/13 15:40:32;;;;;;;12.90;3.67;;;;;;;;;;5156010;27;20200;-54
2021/03/13 15:43:01;;;;;;;5.35;1.80;;;;;;;;;;5152312;27;20203;-53
2021/03/13 15:45:29;;;;;;;9.88;2.17;;;;;;;;;;5152906;27;20220;-50
2021/03/13 15:48:16;;;;;;;9.43;2.60;;;;;;;;;;5139014;27;20203;-52
2021/03/13 15:50:44;;;;;;;7.82;2.33;;;;;;;;;;5154782;27;20199;-52